createdAt,value
2023-05-23T00:00:58.680Z,74.44
2023-05-23T00:03:27.580Z,74.52
2023-05-23T00:05:56.799Z,74.46
2023-05-23T00:08:25.654Z,74.55
2023-05-23T00:10:53.825Z,74.38
2023-05-23T00:13:22.303Z,74.74
2023-05-23T00:15:50.881Z,74.98
2023-05-23T00:18:19.259Z,75.10
2023-05-23T00:20:47.446Z,75.03
2023-05-23T00:23:19.566Z,75.10
2023-05-23T00:25:53.426Z,75.38
2023-05-23T00:28:22.634Z,75.68
2023-05-23T00:30:50.806Z,75.89
2023-05-23T00:33:22.480Z,75.93
2023-05-23T00:35:50.936Z,76.02
2023-05-23T00:38:19.727Z,75.90
2023-05-23T00:40:48.583Z,76.07
2023-05-23T00:43:16.757Z,76.28
2023-05-23T00:45:44.929Z,76.55
2023-05-23T00:48:13.305Z,76.82
2023-05-23T00:50:41.902Z,76.69
2023-05-23T00:53:10.064Z,76.99
2023-05-23T00:55:39.715Z,76.98
2023-05-23T00:58:08.042Z,77.03
2023-05-23T01:00:38.806Z,77.23
2023-05-23T01:03:07.063Z,77.31
2023-05-23T01:05:35.327Z,77.15
2023-05-23T01:08:03.602Z,77.49
2023-05-23T01:10:31.870Z,77.40
2023-05-23T01:13:45.712Z,77.60
2023-05-23T01:16:19.223Z,77.46
2023-05-23T01:19:02.615Z,77.55
2023-05-23T01:21:32.260Z,77.77
2023-05-23T01:24:28.268Z,77.97
2023-05-23T01:27:10.428Z,77.95
2023-05-23T01:29:42.671Z,78.11
2023-05-23T01:32:12.558Z,78.17
2023-05-23T01:34:42.055Z,78.29
2023-05-23T01:37:11.368Z,78.06
2023-05-23T01:39:40.140Z,78.21
2023-05-23T01:42:08.933Z,78.03
2023-05-23T01:44:37.619Z,78.06
2023-05-23T01:47:07.733Z,78.13
2023-05-23T01:49:37.441Z,78.08
2023-05-23T01:52:06.280Z,78.31
2023-05-23T01:54:35.686Z,78.47
2023-05-23T01:57:05.477Z,78.63
2023-05-23T01:59:33.862Z,78.56
2023-05-23T02:02:02.322Z,78.56
2023-05-23T02:04:31.392Z,78.98
2023-05-23T02:07:00.280Z,78.98
2023-05-23T02:09:28.658Z,79.13
2023-05-23T02:11:56.840Z,79.27
2023-05-23T02:14:26.741Z,79.33
2023-05-23T02:16:55.193Z,79.14
2023-05-23T02:19:23.672Z,79.30
2023-05-23T02:21:52.590Z,79.36
2023-05-23T02:24:21.170Z,79.29
2023-05-23T02:26:49.346Z,79.38
2023-05-23T02:29:18.541Z,79.44
2023-05-23T02:31:47.372Z,79.56
2023-05-23T02:34:16.012Z,79.38
2023-05-23T02:36:45.518Z,79.48
2023-05-23T02:39:13.789Z,79.43
2023-05-23T02:41:42.164Z,79.86
2023-05-23T02:44:10.450Z,79.89
2023-05-23T02:46:38.944Z,79.84
2023-05-23T02:49:07.401Z,80.14
2023-05-23T02:51:36.394Z,80.19
2023-05-23T02:54:04.668Z,80.45
2023-05-23T02:56:34.374Z,80.38
2023-05-23T02:59:02.757Z,80.14
2023-05-23T03:01:31.864Z,80.12
2023-05-23T03:04:00.302Z,80.14
2023-05-23T03:06:29.219Z,80.24
2023-05-23T03:08:57.496Z,80.37
2023-05-23T03:11:26.184Z,80.71
2023-05-23T03:13:54.865Z,80.60
2023-05-23T03:16:26.488Z,80.91
2023-05-23T03:18:55.563Z,80.88
2023-05-23T03:21:23.886Z,81.09
2023-05-23T03:23:52.159Z,81.27
2023-05-23T03:26:22.283Z,81.40
2023-05-23T03:28:52.506Z,81.45
2023-05-23T03:31:21.144Z,81.36
2023-05-23T03:33:49.973Z,81.89
2023-05-23T03:36:18.861Z,82.03
2023-05-23T03:38:47.132Z,82.16
2023-05-23T03:41:16.132Z,82.26
2023-05-23T03:43:46.042Z,82.24
2023-05-23T03:46:14.845Z,82.65
2023-05-23T03:48:43.918Z,82.76
2023-05-23T03:51:13.939Z,82.91
2023-05-23T03:53:42.622Z,83.04
2023-05-23T03:56:11.300Z,82.80
2023-05-23T03:58:39.677Z,82.53
2023-05-23T04:01:11.445Z,82.74
2023-05-23T04:03:39.760Z,82.90
2023-05-23T04:06:08.708Z,82.88
2023-05-23T04:08:42.299Z,82.65
2023-05-23T04:11:10.795Z,82.88
2023-05-23T04:13:43.050Z,82.89
2023-05-23T04:16:12.657Z,82.90
2023-05-23T04:18:41.234Z,82.88
2023-05-23T04:21:09.936Z,82.82
2023-05-23T04:23:45.257Z,82.76
2023-05-23T04:26:13.530Z,82.93
2023-05-23T04:28:54.506Z,83.02
2023-05-23T04:31:23.180Z,82.66
2023-05-23T04:33:52.080Z,82.43
2023-05-23T04:36:23.947Z,82.05
2023-05-23T04:38:56.097Z,81.56
2023-05-23T04:41:24.673Z,81.07
2023-05-23T04:43:54.804Z,80.79
2023-05-23T04:46:36.648Z,80.46
2023-05-23T04:49:13.365Z,80.01
2023-05-23T04:51:41.946Z,80.18
2023-05-23T04:54:37.662Z,80.35
2023-05-23T04:57:06.992Z,80.05
2023-05-23T04:59:35.753Z,79.51
2023-05-23T05:02:05.983Z,78.98
2023-05-23T05:04:34.346Z,78.37
2023-05-23T05:07:04.666Z,78.12
2023-05-23T05:09:33.148Z,77.78
2023-05-23T05:12:01.569Z,77.51
2023-05-23T05:14:31.235Z,77.32
2023-05-23T05:16:59.685Z,77.02
2023-05-23T05:19:35.087Z,76.91
2023-05-23T05:22:03.428Z,76.37
2023-05-23T05:24:33.135Z,75.98
2023-05-23T05:27:01.613Z,75.59
2023-05-23T05:29:29.890Z,75.42
2023-05-23T05:31:58.370Z,75.51
2023-05-23T05:34:27.174Z,75.30
2023-05-23T05:36:56.660Z,74.69
2023-05-23T05:39:26.779Z,74.68
2023-05-23T05:41:56.486Z,74.69
2023-05-23T05:44:25.179Z,74.54
2023-05-23T05:46:53.661Z,74.35
2023-05-23T05:49:22.640Z,74.44
2023-05-23T05:51:51.948Z,74.28
2023-05-23T05:54:20.221Z,74.20
2023-05-23T05:56:48.699Z,73.69
2023-05-23T05:59:17.817Z,73.50
2023-05-23T06:01:46.186Z,72.85
2023-05-23T06:04:15.426Z,72.48
2023-05-23T06:06:44.253Z,72.42
2023-05-23T06:09:12.741Z,72.46
2023-05-23T06:11:41.359Z,72.47
2023-05-23T06:14:10.249Z,72.31
2023-05-23T06:16:41.156Z,72.12
2023-05-23T06:19:10.170Z,72.02
2023-05-23T06:21:39.477Z,71.95
2023-05-23T06:24:08.635Z,71.55
2023-05-23T06:26:37.933Z,71.21
2023-05-23T06:29:06.148Z,70.93
2023-05-23T06:31:36.254Z,70.60
2023-05-23T06:34:07.075Z,70.21
2023-05-23T06:36:35.428Z,69.98
2023-05-23T06:39:03.708Z,69.86
2023-05-23T06:41:32.076Z,69.56
2023-05-23T06:44:00.352Z,69.05
2023-05-23T06:46:31.906Z,67.96
2023-05-23T06:49:13.880Z,67.42
2023-05-23T06:51:44.176Z,66.94
2023-05-23T06:54:12.960Z,67.11
2023-05-23T06:56:41.393Z,66.97
2023-05-23T06:59:09.875Z,66.91
2023-05-23T07:01:38.957Z,66.37
2023-05-23T07:04:07.385Z,66.34
2023-05-23T07:06:36.640Z,66.01
2023-05-23T07:09:05.348Z,65.51
2023-05-23T07:11:35.577Z,65.19
2023-05-23T07:14:04.123Z,64.92
2023-05-23T07:16:38.187Z,64.82
2023-05-23T07:19:08.190Z,64.64
2023-05-23T07:21:42.468Z,64.65
2023-05-23T07:24:11.359Z,64.69
2023-05-23T07:26:39.730Z,64.29
2023-05-23T07:29:08.222Z,64.09
2023-05-23T07:31:36.556Z,63.66
2023-05-23T07:34:05.166Z,63.03
2023-05-23T07:36:41.181Z,62.46
2023-05-23T07:39:12.265Z,62.11
2023-05-23T07:41:40.541Z,61.86
2023-05-23T07:44:09.944Z,61.58
2023-05-23T07:46:38.735Z,61.04
2023-05-23T07:49:07.410Z,60.70
2023-05-23T07:51:36.503Z,60.44
2023-05-23T07:54:05.186Z,60.04
2023-05-23T07:56:33.892Z,59.86
2023-05-23T07:59:02.557Z,59.55
2023-05-23T08:01:31.587Z,58.78
2023-05-23T08:04:04.240Z,58.27
2023-05-23T08:07:04.410Z,57.70
2023-05-23T08:09:44.707Z,57.51
2023-05-23T08:12:16.057Z,57.68
2023-05-23T08:14:51.274Z,57.36
2023-05-23T08:17:43.855Z,57.21
2023-05-23T08:20:13.130Z,57.20
2023-05-23T08:22:41.511Z,56.76
2023-05-23T08:25:11.015Z,56.87
2023-05-23T08:27:41.458Z,56.92
2023-05-23T08:30:23.539Z,57.26
2023-05-23T08:32:53.583Z,57.37
2023-05-23T08:35:22.654Z,57.40
2023-05-23T08:37:52.627Z,57.70
2023-05-23T08:40:22.688Z,57.97
2023-05-23T08:42:58.982Z,58.58
2023-05-23T08:45:29.683Z,59.24
2023-05-23T08:48:01.338Z,59.72
2023-05-23T08:50:31.034Z,60.89
2023-05-23T08:52:59.981Z,62.00
2023-05-23T08:55:30.164Z,62.93
2023-05-23T08:58:03.808Z,63.83
2023-05-23T09:00:40.482Z,64.45
2023-05-23T09:03:09.473Z,64.86
2023-05-23T09:05:47.863Z,65.35
2023-05-23T09:08:16.968Z,65.98
2023-05-23T09:10:46.210Z,66.43
2023-05-23T09:13:15.717Z,66.90
2023-05-23T09:16:11.272Z,67.56
2023-05-23T09:18:44.727Z,68.41
2023-05-23T09:21:15.253Z,68.17
2023-05-23T09:24:05.986Z,68.27
2023-05-23T09:26:34.537Z,68.55
2023-05-23T09:29:05.997Z,68.49
2023-05-23T09:31:34.884Z,68.78
2023-05-23T09:34:04.382Z,68.64
2023-05-23T09:36:36.850Z,68.38
2023-05-23T09:39:08.505Z,68.38
2023-05-23T09:41:36.882Z,67.92
2023-05-23T09:44:09.148Z,67.94
2023-05-23T09:46:41.048Z,67.65
2023-05-23T09:49:18.203Z,67.52
2023-05-23T09:52:01.533Z,67.53
2023-05-23T09:54:29.997Z,67.44
2023-05-23T09:57:01.595Z,67.48
2023-05-23T09:59:32.605Z,68.25
2023-05-23T10:02:04.147Z,68.68
2023-05-23T10:04:35.477Z,68.73
2023-05-23T10:07:15.959Z,69.16
2023-05-23T10:09:48.728Z,69.22
2023-05-23T10:12:38.713Z,68.84
2023-05-23T10:15:07.966Z,67.84
2023-05-23T10:18:03.159Z,67.47
2023-05-23T10:20:32.358Z,67.59
2023-05-23T10:23:01.828Z,67.75
2023-05-23T10:25:30.100Z,67.79
2023-05-23T10:28:02.454Z,67.97
2023-05-23T10:30:32.474Z,68.30
2023-05-23T10:33:01.466Z,68.48
2023-05-23T10:35:47.736Z,68.61
2023-05-23T10:38:22.180Z,68.33
2023-05-23T10:41:03.559Z,68.26
2023-05-23T10:43:40.340Z,68.37
2023-05-23T10:46:09.721Z,68.33
2023-05-23T10:48:45.378Z,68.43
2023-05-23T10:51:16.428Z,68.69
2023-05-23T10:53:46.652Z,68.64
2023-05-23T10:56:23.732Z,68.34
2023-05-23T10:58:56.154Z,68.71
2023-05-23T11:01:25.499Z,68.78
2023-05-23T11:03:55.658Z,68.75
2023-05-23T11:06:45.592Z,68.61
2023-05-23T11:09:19.629Z,67.71
2023-05-23T11:11:54.184Z,67.59
2023-05-23T11:14:32.229Z,67.38
2023-05-23T11:17:01.575Z,67.27
2023-05-23T11:19:30.250Z,67.21
2023-05-23T11:22:02.887Z,66.76
2023-05-23T11:24:53.086Z,66.67
2023-05-23T11:27:38.170Z,66.70
2023-05-23T11:30:11.246Z,66.85
2023-05-23T11:32:40.491Z,67.09
2023-05-23T11:35:10.793Z,67.09
2023-05-23T11:37:40.182Z,67.31
2023-05-23T11:40:32.017Z,67.71
2023-05-23T11:43:02.496Z,68.16
2023-05-23T11:45:32.297Z,67.79
2023-05-23T11:48:06.811Z,67.85
2023-05-23T11:50:35.529Z,67.59
2023-05-23T11:53:03.816Z,67.54
2023-05-23T11:55:32.078Z,67.27
2023-05-23T11:58:01.068Z,67.16
2023-05-23T12:00:29.956Z,67.23
2023-05-23T12:02:58.259Z,67.26
2023-05-23T12:05:29.063Z,66.99
2023-05-23T12:08:00.311Z,66.87
2023-05-23T12:10:29.562Z,66.65
2023-05-23T12:12:58.503Z,66.19
2023-05-23T12:15:29.745Z,66.24
2023-05-23T12:17:58.353Z,66.19
2023-05-23T12:20:26.914Z,66.22
2023-05-23T12:22:57.451Z,66.01
2023-05-23T12:25:25.911Z,65.95
2023-05-23T12:27:56.547Z,64.89
2023-05-23T12:30:24.722Z,64.45
2023-05-23T12:32:53.217Z,63.81
2023-05-23T12:35:21.780Z,63.05
2023-05-23T12:37:49.952Z,61.54
2023-05-23T12:40:19.456Z,60.94
2023-05-23T12:42:55.267Z,60.03
2023-05-23T12:45:34.276Z,59.51
2023-05-23T12:48:07.639Z,59.06
2023-05-23T12:50:36.514Z,58.74
2023-05-23T12:53:04.795Z,59.04
2023-05-23T12:55:33.163Z,59.03
2023-05-23T12:58:01.439Z,59.03
2023-05-23T13:00:29.817Z,59.28
2023-05-23T13:02:58.075Z,59.65
2023-05-23T13:05:27.805Z,59.98
2023-05-23T13:07:56.078Z,59.95
2023-05-23T13:10:24.353Z,60.41
2023-05-23T13:12:52.636Z,60.53
2023-05-23T13:15:21.207Z,61.21
2023-05-23T13:17:50.320Z,61.58
2023-05-23T13:20:18.985Z,62.10
2023-05-23T13:22:47.468Z,62.62
2023-05-23T13:25:16.058Z,63.25
2023-05-23T13:27:44.324Z,63.82
2023-05-23T13:30:12.902Z,63.91
2023-05-23T13:32:41.194Z,62.97
2023-05-23T13:35:09.864Z,62.19
2023-05-23T13:37:38.236Z,61.43
2023-05-23T13:40:07.358Z,60.76
2023-05-23T13:42:35.709Z,59.82
2023-05-23T13:45:05.242Z,59.33
2023-05-23T13:47:33.623Z,58.77
2023-05-23T13:50:02.907Z,57.89
2023-05-23T13:52:31.366Z,56.74
2023-05-23T13:55:01.727Z,55.57
2023-05-23T13:57:30.179Z,54.45
2023-05-23T13:59:58.554Z,53.91
2023-05-23T14:02:27.697Z,52.22
2023-05-23T14:04:56.358Z,51.52
2023-05-23T14:07:24.607Z,51.28
2023-05-23T14:09:52.874Z,51.26
2023-05-23T14:12:21.368Z,51.49
2023-05-23T14:14:49.627Z,51.89
2023-05-23T14:17:18.114Z,52.18
2023-05-23T14:19:47.267Z,52.36
2023-05-23T14:22:15.690Z,52.63
2023-05-23T14:24:44.263Z,52.58
2023-05-23T14:27:12.533Z,53.25
2023-05-23T14:29:41.022Z,53.79
2023-05-23T14:32:09.251Z,54.12
2023-05-23T14:34:37.670Z,54.79
2023-05-23T14:37:05.951Z,54.61
2023-05-23T14:39:34.116Z,55.06
2023-05-23T14:42:03.127Z,55.56
2023-05-23T14:44:31.494Z,56.11
2023-05-23T14:46:59.756Z,56.73
2023-05-23T14:49:27.932Z,57.54
2023-05-23T14:51:56.622Z,58.08
2023-05-23T14:54:24.892Z,58.57
2023-05-23T14:56:53.634Z,58.64
2023-05-23T14:59:22.156Z,59.10
2023-05-23T15:01:50.667Z,59.67
2023-05-23T15:04:19.132Z,60.22
2023-05-23T15:06:47.631Z,60.76
2023-05-23T15:09:17.051Z,61.36
2023-05-23T15:11:47.012Z,61.55
2023-05-23T15:14:16.625Z,61.33
2023-05-23T15:16:45.650Z,60.44
2023-05-23T15:19:14.030Z,58.71
2023-05-23T15:21:50.432Z,57.50
2023-05-23T15:24:20.058Z,55.60
2023-05-23T15:26:49.169Z,54.15
2023-05-23T15:29:18.449Z,52.38
2023-05-23T15:31:46.705Z,51.39
2023-05-23T15:34:15.114Z,50.05
2023-05-23T15:36:43.377Z,48.94
2023-05-23T15:39:12.850Z,47.96
2023-05-23T15:41:41.259Z,46.77
2023-05-23T15:44:09.654Z,45.93
2023-05-23T15:46:38.357Z,45.58
2023-05-23T15:49:17.486Z,44.94
2023-05-23T15:51:54.498Z,44.18
2023-05-23T15:54:23.005Z,43.41
2023-05-23T15:56:51.283Z,42.55
2023-05-23T15:59:19.455Z,42.20
2023-05-23T16:01:47.768Z,41.65
2023-05-23T16:04:16.530Z,41.43
2023-05-23T16:06:45.101Z,41.24
2023-05-23T16:09:13.285Z,40.26
2023-05-23T16:11:42.185Z,40.86
2023-05-23T16:14:10.438Z,42.09
2023-05-23T16:16:38.796Z,43.47
2023-05-23T16:19:07.759Z,44.77
2023-05-23T16:21:36.897Z,46.04
2023-05-23T16:24:06.021Z,47.26
2023-05-23T16:26:34.472Z,48.42
2023-05-23T16:29:02.748Z,49.56
2023-05-23T16:31:31.187Z,50.54
2023-05-23T16:33:59.808Z,51.33
2023-05-23T16:36:28.701Z,52.37
2023-05-23T16:38:56.973Z,53.00
2023-05-23T16:41:25.459Z,53.69
2023-05-23T16:43:53.829Z,54.32
2023-05-23T16:46:22.542Z,54.94
2023-05-23T16:48:51.097Z,55.55
2023-05-23T16:51:19.371Z,56.14
2023-05-23T16:53:47.963Z,56.62
2023-05-23T16:56:16.536Z,57.31
2023-05-23T16:58:44.708Z,57.86
2023-05-23T17:01:14.099Z,58.33
2023-05-23T17:03:42.709Z,58.97
2023-05-23T17:06:11.171Z,59.60
2023-05-23T17:08:39.544Z,60.07
2023-05-23T17:11:07.921Z,60.62
2023-05-23T17:13:36.501Z,60.89
2023-05-23T17:16:04.841Z,61.28
2023-05-23T17:18:33.269Z,61.90
2023-05-23T17:21:01.836Z,62.53
2023-05-23T17:23:30.213Z,63.44
2023-05-23T17:25:58.383Z,64.39
2023-05-23T17:28:26.862Z,64.94
2023-05-23T17:52:36.259Z,73.64
2023-05-23T17:55:05.364Z,76.49
2023-05-23T17:57:33.885Z,77.29
2023-05-23T18:00:02.567Z,78.18
2023-05-23T18:02:43.265Z,78.86
2023-05-23T18:05:12.941Z,79.61
2023-05-23T18:07:41.322Z,79.92
2023-05-23T18:10:09.897Z,80.47
2023-05-23T18:12:38.380Z,81.10
2023-05-23T18:15:10.542Z,81.87
2023-05-23T18:17:39.173Z,82.63
2023-05-23T18:20:08.530Z,83.11
2023-05-23T18:22:37.209Z,83.48
2023-05-23T18:25:07.134Z,83.99
2023-05-23T18:27:35.706Z,84.69
2023-05-23T18:30:04.697Z,85.06
2023-05-23T18:32:33.190Z,85.08
2023-05-23T18:35:02.009Z,85.59
2023-05-23T18:37:31.173Z,85.76
2023-05-23T18:40:00.766Z,86.09
2023-05-23T18:42:32.317Z,86.57
2023-05-23T18:45:06.022Z,86.80
2023-05-23T18:47:38.100Z,86.72
2023-05-23T18:50:10.603Z,87.18
2023-05-23T18:52:39.348Z,87.67
2023-05-23T18:55:08.756Z,88.29
2023-05-23T18:57:44.589Z,88.74
2023-05-23T19:00:24.340Z,89.23
2023-05-23T19:02:55.655Z,89.59
2023-05-23T19:05:26.929Z,89.54
2023-05-23T19:07:57.868Z,89.91
2023-05-23T19:10:28.806Z,90.08
2023-05-23T19:12:57.698Z,90.31
2023-05-23T19:15:26.291Z,90.82
2023-05-23T19:17:58.039Z,90.98
2023-05-23T19:20:31.842Z,91.17
2023-05-23T19:23:03.695Z,91.32
2023-05-23T19:25:35.348Z,91.43
2023-05-23T19:28:07.251Z,91.40
2023-05-23T19:30:36.300Z,91.77
2023-05-23T19:33:05.684Z,92.00
2023-05-23T19:35:37.665Z,92.21
2023-05-23T19:38:06.762Z,92.67
2023-05-23T19:40:38.702Z,93.16
2023-05-23T19:43:17.748Z,93.18
2023-05-23T19:45:53.627Z,93.28
2023-05-23T19:48:22.178Z,93.65
2023-05-23T19:50:54.040Z,94.04
2023-05-23T19:53:25.694Z,94.11
2023-05-23T19:55:57.864Z,94.27
2023-05-23T19:58:26.682Z,94.39
2023-05-23T20:01:04.660Z,94.47
2023-05-23T20:03:40.366Z,94.69
2023-05-23T20:06:42.462Z,94.81
2023-05-23T20:09:15.959Z,94.98
2023-05-23T20:11:45.053Z,94.87
2023-05-23T20:14:19.416Z,94.94
2023-05-23T20:16:51.074Z,95.06
2023-05-23T20:19:20.272Z,95.13
2023-05-23T20:21:54.282Z,95.17
2023-05-23T20:24:32.348Z,95.38
2023-05-23T20:27:06.034Z,95.49
2023-05-23T20:29:42.915Z,95.53
2023-05-23T20:32:14.363Z,95.64
2023-05-23T20:34:48.679Z,95.69
2023-05-23T20:37:20.951Z,95.80
2023-05-23T20:39:53.012Z,95.95
2023-05-23T20:42:33.081Z,96.02
2023-05-23T20:45:07.217Z,96.30
2023-05-23T20:47:46.513Z,96.57
2023-05-23T20:50:19.270Z,96.62
2023-05-23T20:52:50.639Z,96.45
2023-05-23T20:55:25.364Z,96.44
2023-05-23T20:58:08.710Z,96.64
2023-05-23T21:00:43.496Z,96.38
2023-05-23T21:03:17.793Z,96.51
2023-05-23T21:05:52.050Z,96.22
2023-05-23T21:08:24.212Z,96.32
2023-05-23T21:10:56.261Z,96.37
2023-05-23T21:13:28.132Z,96.73
2023-05-23T21:16:06.338Z,96.65
2023-05-23T21:18:35.129Z,96.52
2023-05-23T21:21:03.914Z,96.82
2023-05-23T21:23:37.819Z,96.79
2023-05-23T21:26:11.420Z,97.13
2023-05-23T21:28:40.429Z,97.17
2023-05-23T21:31:14.671Z,96.94
2023-05-23T21:33:48.737Z,97.23
2023-05-23T21:36:19.674Z,97.17
2023-05-23T21:38:54.094Z,97.16
2023-05-23T21:41:27.795Z,97.16
2023-05-23T21:44:02.377Z,97.23
2023-05-23T21:46:37.435Z,97.61
2023-05-23T21:49:09.321Z,97.80
2023-05-23T21:51:42.307Z,97.78
2023-05-23T21:54:16.066Z,97.89
2023-05-23T21:56:57.724Z,97.96
2023-05-23T21:59:29.650Z,97.74
2023-05-23T22:02:01.547Z,97.89
2023-05-23T22:04:35.742Z,98.10
2023-05-23T22:07:07.381Z,98.30
2023-05-23T22:09:39.131Z,98.24
2023-05-23T22:12:08.377Z,97.91
2023-05-23T22:14:39.775Z,97.77
2023-05-23T22:17:11.339Z,97.78
2023-05-23T22:19:40.545Z,98.08
2023-05-23T22:22:12.224Z,97.89
2023-05-23T22:24:41.073Z,97.49
2023-05-23T22:27:12.006Z,97.26
2023-05-23T22:29:45.805Z,96.99
2023-05-23T22:32:14.500Z,96.73
2023-05-23T22:34:43.282Z,96.48
2023-05-23T22:37:12.066Z,96.69
2023-05-23T22:39:43.514Z,96.32
2023-05-23T22:42:15.066Z,96.58
2023-05-23T22:44:43.543Z,96.70
2023-05-23T22:47:13.956Z,96.80
2023-05-23T22:49:45.953Z,96.80
2023-05-23T22:52:14.617Z,96.61
2023-05-23T22:54:46.581Z,96.41
2023-05-23T22:57:17.314Z,96.43
2023-05-23T22:59:49.373Z,96.49
2023-05-23T23:02:21.079Z,96.43
2023-05-23T23:04:49.920Z,96.51
2023-05-23T23:07:18.917Z,96.44
2023-05-23T23:09:49.952Z,96.65
2023-05-23T23:12:21.604Z,96.81
2023-05-23T23:14:53.303Z,96.70
2023-05-23T23:17:22.259Z,96.51
2023-05-23T23:19:53.517Z,96.38
2023-05-23T23:22:22.281Z,96.63
2023-05-23T23:24:53.946Z,96.80
2023-05-23T23:27:26.811Z,96.86
2023-05-23T23:29:58.471Z,96.75
2023-05-23T23:32:27.697Z,96.83
2023-05-23T23:34:56.593Z,96.80
2023-05-23T23:37:27.897Z,96.83
2023-05-23T23:39:59.875Z,96.63
2023-05-23T23:42:31.410Z,96.74
2023-05-23T23:45:03.002Z,97.00
2023-05-23T23:47:34.190Z,96.73
2023-05-23T23:50:03.402Z,96.61
2023-05-23T23:52:41.312Z,96.64
2023-05-23T23:55:13.365Z,96.51
2023-05-23T23:57:44.913Z,97.00
